Time;durP1;ratioP1;P1;durP2;ratioP2;P2;SDS_P1;SDS_P2;PMS_P1;PMS_P2;Temp;Humidity;BMP_temperature;BMP_pressure;BME280_temperature;BME280_humidity;BME280_pressure;Samples;Min_cycle;Max_cycle;Signal;HPM_P1;HPM_P2
2021/03/22 00:01:44;;;;;;;156.67;89.20;;;3.20;99.90;;;;;;5013859;28;20034;-72
2021/03/22 00:04:10;;;;;;;165.53;92.37;;;3.20;99.90;;;;;;5014134;28;20033;-69
2021/03/22 00:06:36;;;;;;;167.13;93.63;;;3.20;99.90;;;;;;5012349;28;20060;-71
2021/03/22 00:09:03;;;;;;;165.57;94.57;;;3.20;99.90;;;;;;5013746;28;20065;-69
2021/03/22 00:11:29;;;;;;;165.20;96.03;;;3.20;99.90;;;;;;5013649;28;20109;-71
2021/03/22 00:13:55;;;;;;;159.27;90.30;;;3.20;99.90;;;;;;5013677;28;20109;-71
2021/03/22 00:16:21;;;;;;;159.07;92.10;;;3.20;99.90;;;;;;5012933;28;20026;-70
2021/03/22 00:18:47;;;;;;;159.43;90.87;;;3.20;99.90;;;;;;5028714;28;20029;-70
2021/03/22 00:21:14;;;;;;;157.43;91.90;;;3.20;99.90;;;;;;5012175;28;20026;-71
2021/03/22 00:23:40;;;;;;;163.60;94.73;;;3.10;99.90;;;;;;5013468;28;20034;-69
2021/03/22 00:26:07;;;;;;;160.90;91.37;;;3.10;99.90;;;;;;5013026;28;20552;-69
2021/03/22 00:28:41;;;;;;;156.07;91.33;;;3.10;99.90;;;;;;5013437;28;20038;-69
2021/03/22 00:31:13;;;;;;;164.73;93.93;;;3.10;99.90;;;;;;5012152;28;20041;-67
2021/03/22 00:33:39;;;;;;;167.97;92.73;;;3.10;99.90;;;;;;5013380;28;20096;-67
2021/03/22 00:36:09;;;;;;;159.87;91.73;;;3.10;99.90;;;;;;5013439;28;20475;-68
2021/03/22 00:38:36;;;;;;;169.17;95.33;;;3.10;99.90;;;;;;5013351;28;20021;-71
2021/03/22 00:41:03;;;;;;;157.57;89.00;;;3.10;99.90;;;;;;5013316;28;20030;-69
2021/03/22 00:43:28;;;;;;;160.10;88.03;;;3.10;99.90;;;;;;5011939;28;20026;-71
2021/03/22 00:45:58;;;;;;;152.73;87.93;;;3.10;99.90;;;;;;5013529;28;20421;-71
2021/03/22 00:48:26;;;;;;;148.57;83.97;;;3.10;99.90;;;;;;5013131;28;20038;-69
2021/03/22 00:50:53;;;;;;;127.70;78.07;;;3.10;99.90;;;;;;5013513;28;20064;-68
2021/03/22 00:53:19;;;;;;;125.40;72.13;;;3.10;99.90;;;;;;5013198;28;20022;-70
2021/03/22 00:55:45;;;;;;;126.53;74.07;;;3.20;99.90;;;;;;5012938;28;20033;-68
2021/03/22 00:58:12;;;;;;;131.73;77.40;;;3.10;99.90;;;;;;5013100;28;20076;-71
2021/03/22 01:00:59;;;;;;;123.87;71.13;;;3.20;99.90;;;;;;5011829;28;20049;-67
2021/03/22 01:03:29;;;;;;;125.97;72.33;;;3.20;99.90;;;;;;5011668;28;20169;-69
2021/03/22 01:05:56;;;;;;;119.43;72.15;;;3.20;99.90;;;;;;5013164;28;20566;-69
2021/03/22 01:08:25;;;;;;;122.70;70.00;;;3.20;99.90;;;;;;5011625;28;20030;-67
2021/03/22 01:10:57;;;;;;;128.73;71.87;;;3.20;99.90;;;;;;5012998;28;20037;-67
2021/03/22 01:13:29;;;;;;;119.43;70.35;;;3.20;99.90;;;;;;5013081;28;20030;-71
2021/03/22 01:15:56;;;;;;;114.80;65.63;;;3.20;99.90;;;;;;5012767;28;20030;-70
2021/03/22 01:18:28;;;;;;;111.57;64.17;;;3.20;99.90;;;;;;5012911;28;20026;-70
2021/03/22 01:21:06;;;;;;;109.65;64.10;;;3.20;99.90;;;;;;5012939;28;20429;-72
2021/03/22 01:23:32;;;;;;;113.80;63.80;;;3.20;99.90;;;;;;5012570;28;20092;-68
2021/03/22 01:26:01;;;;;;;106.27;59.30;;;3.10;99.90;;;;;;5012958;28;20062;-69
2021/03/22 01:28:27;;;;;;;95.93;58.23;;;3.20;99.90;;;;;;5031759;28;20393;-69
2021/03/22 01:30:58;;;;;;;77.43;44.07;;;3.20;99.90;;;;;;5015188;28;20022;-68
2021/03/22 01:33:27;;;;;;;70.90;42.42;;;3.20;99.90;;;;;;5016598;28;20032;-70
2021/03/22 01:35:58;;;;;;;64.57;37.33;;;3.30;99.90;;;;;;5015266;28;20434;-71
2021/03/22 01:38:24;;;;;;;60.83;36.15;;;3.30;99.20;;;;;;5016585;28;20064;-70
2021/03/22 01:41:24;;;;;;;60.50;35.80;;;3.40;98.10;;;;;;5016435;28;20048;-71
2021/03/22 01:44:08;;;;;;;57.35;35.10;;;3.40;98.10;;;;;;5015097;28;20033;-70
2021/03/22 01:46:34;;;;;;;58.75;33.55;;;3.40;98.00;;;;;;5016277;28;20112;-71
2021/03/22 01:49:04;;;;;;;54.07;31.93;;;3.40;97.60;;;;;;5016263;28;20026;-69
2021/03/22 01:51:30;;;;;;;52.63;30.70;;;3.40;96.50;;;;;;5016243;28;20466;-71
2021/03/22 01:53:56;;;;;;;47.60;30.08;;;3.40;96.00;;;;;;5016247;28;20036;-69
2021/03/22 01:56:22;;;;;;;43.72;28.83;;;3.40;96.10;;;;;;5014849;28;20470;-70
2021/03/22 01:58:48;;;;;;;52.58;29.17;;;3.40;96.00;;;;;;5016288;28;20034;-71
2021/03/22 02:01:15;;;;;;;46.42;27.45;;;3.40;96.20;;;;;;5016039;28;20026;-70
2021/03/22 02:03:42;;;;;;;40.20;25.23;;;3.40;95.10;;;;;;5016002;28;20058;-72
2021/03/22 02:06:08;;;;;;;38.10;24.05;;;3.40;94.20;;;;;;5016007;28;20038;-70
2021/03/22 02:08:41;;;;;;;40.15;23.38;;;3.40;94.30;;;;;;5014557;28;20538;-70
2021/03/22 02:11:23;;;;;;;39.00;23.02;;;3.30;94.10;;;;;;5016142;28;20026;-68
2021/03/22 02:13:51;;;;;;;33.37;21.43;;;3.30;94.10;;;;;;5015821;28;20033;-69
2021/03/22 02:16:35;;;;;;;35.33;21.67;;;3.30;93.60;;;;;;5015837;28;20022;-68
2021/03/22 02:19:13;;;;;;;31.67;19.77;;;3.30;93.40;;;;;;5014409;28;20034;-71
2021/03/22 02:21:55;;;;;;;39.07;19.60;;;3.30;93.10;;;;;;5015377;28;20033;-71
2021/03/22 02:24:42;;;;;;;38.00;21.93;;;3.30;93.20;;;;;;5014321;28;20156;-71
2021/03/22 02:27:40;;;;;;;41.47;24.07;;;3.40;93.40;;;;;;5013728;28;20053;-70
2021/03/22 02:30:25;;;;;;;56.00;28.65;;;3.40;94.00;;;;;;4973923;28;20047;-70
2021/03/22 02:33:12;;;;;;;56.47;30.27;;;3.30;94.50;;;;;;4973990;28;20045;-70
2021/03/22 02:35:48;;;;;;;59.27;31.53;;;3.30;94.20;;;;;;4973931;28;20035;-70
2021/03/22 02:38:24;;;;;;;56.50;30.40;;;3.40;95.30;;;;;;4973222;28;20034;-69
2021/03/22 02:41:01;;;;;;;54.65;29.25;;;3.30;94.40;;;;;;4973879;28;20126;-69
2021/03/22 02:43:31;;;;;;;48.70;26.40;;;3.30;94.60;;;;;;4973811;28;20035;-70
2021/03/22 02:45:56;;;;;;;42.77;24.80;;;3.30;94.70;;;;;;4973788;28;20035;-70
2021/03/22 02:48:28;;;;;;;45.13;25.30;;;3.30;94.80;;;;;;4973714;28;20039;-68
2021/03/22 02:51:15;;;;;;;40.03;22.88;;;3.20;94.80;;;;;;4973774;28;20121;-70
2021/03/22 02:53:44;;;;;;;37.83;22.65;;;3.20;94.90;;;;;;4973619;28;20054;-69
2021/03/22 02:56:19;;;;;;;40.30;23.05;;;3.20;94.80;;;;;;4957357;28;20039;-69
2021/03/22 02:59:02;;;;;;;47.90;26.27;;;3.20;95.00;;;;;;4973855;28;20090;-69
2021/03/22 03:01:36;;;;;;;40.23;23.13;;;3.20;95.00;;;;;;4973528;28;20031;-72
2021/03/22 03:04:05;;;;;;;38.73;22.53;;;3.20;94.70;;;;;;4973734;28;20096;-71
2021/03/22 03:06:48;;;;;;;34.45;19.77;;;3.20;94.40;;;;;;5003950;28;20038;-71
2021/03/22 03:09:15;;;;;;;30.67;19.65;;;3.20;94.30;;;;;;5014837;28;20026;-71
2021/03/22 03:11:40;;;;;;;32.83;18.42;;;3.20;94.20;;;;;;5014697;28;20466;-69
2021/03/22 03:14:06;;;;;;;34.85;19.25;;;3.10;93.60;;;;;;5014971;28;20029;-70
2021/03/22 03:16:33;;;;;;;32.05;19.05;;;3.10;93.90;;;;;;5029792;28;20386;-71
2021/03/22 03:18:59;;;;;;;32.72;18.27;;;3.00;94.00;;;;;;5014613;28;20034;-70
2021/03/22 03:21:25;;;;;;;26.13;16.93;;;3.00;93.90;;;;;;5029718;28;20489;-71
2021/03/22 03:23:52;;;;;;;26.30;17.13;;;2.90;93.70;;;;;;5014528;28;20033;-70
2021/03/22 03:26:18;;;;;;;34.60;19.10;;;2.90;94.00;;;;;;5013910;28;20426;-70
2021/03/22 03:28:44;;;;;;;32.97;18.07;;;2.90;94.60;;;;;;5013164;28;20061;-71
2021/03/22 03:31:10;;;;;;;29.67;19.07;;;2.80;94.30;;;;;;5014688;28;20514;-70
2021/03/22 03:33:36;;;;;;;31.40;18.47;;;2.70;94.80;;;;;;5014360;28;20461;-69
2021/03/22 03:36:02;;;;;;;25.33;17.27;;;2.70;94.20;;;;;;5014603;28;20029;-69
2021/03/22 03:38:28;;;;;;;29.07;17.33;;;2.60;94.00;;;;;;5014260;28;20077;-69
2021/03/22 03:40:54;;;;;;;31.83;19.37;;;2.60;94.40;;;;;;5012894;28;20462;-70
2021/03/22 03:43:20;;;;;;;40.17;21.63;;;2.70;95.40;;;;;;5012855;28;20029;-67
2021/03/22 03:45:49;;;;;;;32.33;20.10;;;2.60;96.40;;;;;;5014187;28;20034;-68
2021/03/22 03:48:18;;;;;;;34.23;19.93;;;2.60;96.20;;;;;;5014054;28;20065;-66
2021/03/22 03:50:45;;;;;;;44.40;20.23;;;2.50;95.90;;;;;;5013149;28;20030;-70
2021/03/22 03:53:11;;;;;;;43.40;19.60;;;2.50;95.80;;;;;;5014311;28;20065;-70
2021/03/22 03:55:37;;;;;;;68.10;24.43;;;2.50;95.70;;;;;;5014315;28;20445;-69
2021/03/22 03:58:04;;;;;;;57.37;22.47;;;2.40;95.50;;;;;;5013899;28;20026;-67
2021/03/22 04:00:41;;;;;;;33.60;19.40;;;2.40;95.30;;;;;;5014114;28;20187;-69
2021/03/22 04:03:23;;;;;;;30.00;16.80;;;2.30;95.40;;;;;;5013913;28;20030;-69
2021/03/22 04:05:53;;;;;;;57.23;20.80;;;2.30;95.80;;;;;;5013780;28;20030;-67
2021/03/22 04:08:19;;;;;;;36.80;18.67;;;2.30;95.20;;;;;;5012371;28;20355;-69
2021/03/22 04:10:45;;;;;;;30.60;18.37;;;2.30;96.00;;;;;;5012372;28;20033;-69
2021/03/22 04:13:11;;;;;;;29.30;17.27;;;2.30;96.10;;;;;;5012370;28;20022;-67
2021/03/22 04:15:37;;;;;;;26.33;16.67;;;2.30;95.70;;;;;;5013587;28;20394;-67
2021/03/22 04:18:03;;;;;;;49.03;21.10;;;2.20;96.00;;;;;;5012240;28;20041;-66
2021/03/22 04:20:29;;;;;;;34.87;18.33;;;2.20;95.60;;;;;;5013576;28;20030;-69
2021/03/22 04:22:55;;;;;;;28.07;17.93;;;2.20;95.30;;;;;;5013485;28;20106;-70
2021/03/22 04:25:21;;;;;;;31.20;18.47;;;2.20;96.00;;;;;;5013499;28;20034;-69
2021/03/22 04:27:47;;;;;;;27.03;17.20;;;2.20;96.10;;;;;;5012991;28;20068;-69
2021/03/22 04:30:14;;;;;;;29.77;17.40;;;2.10;95.70;;;;;;5012161;28;20041;-68
2021/03/22 04:32:40;;;;;;;27.50;18.07;;;2.10;95.70;;;;;;5028287;28;20022;-69
2021/03/22 04:35:07;;;;;;;29.30;16.97;;;2.10;96.30;;;;;;5012023;28;20022;-68
2021/03/22 04:37:32;;;;;;;30.40;17.83;;;2.10;95.40;;;;;;5013469;28;20100;-71
2021/03/22 04:39:58;;;;;;;28.77;17.97;;;2.10;95.90;;;;;;5013334;28;20467;-70
2021/03/22 04:42:24;;;;;;;28.50;17.50;;;2.10;96.10;;;;;;5011999;28;20033;-69
2021/03/22 04:44:50;;;;;;;28.77;17.23;;;2.10;96.20;;;;;;5013280;28;20455;-69
2021/03/22 04:47:16;;;;;;;24.53;16.50;;;2.10;95.80;;;;;;5013463;28;20107;-69
2021/03/22 04:49:42;;;;;;;25.53;15.70;;;2.00;95.90;;;;;;5013189;28;20042;-69
2021/03/22 04:52:08;;;;;;;28.57;17.03;;;2.10;96.00;;;;;;5013434;28;20038;-69
2021/03/22 04:54:34;;;;;;;26.83;17.27;;;2.00;96.30;;;;;;5013454;28;20029;-71
2021/03/22 04:57:30;;;;;;;30.80;17.73;;;2.00;97.00;;;;;;5011911;28;20386;-71
2021/03/22 04:59:58;;;;;;;30.53;17.63;;;2.00;96.60;;;;;;5013242;28;20026;-68
2021/03/22 05:02:25;;;;;;;33.10;19.93;;;1.90;96.70;;;;;;5016022;28;20036;-70
2021/03/22 05:04:51;;;;;;;32.63;19.67;;;2.00;97.10;;;;;;5017083;28;20185;-70
2021/03/22 05:07:18;;;;;;;31.07;19.33;;;2.00;96.90;;;;;;5016765;28;20049;-72
2021/03/22 05:09:45;;;;;;;34.10;19.53;;;2.00;97.40;;;;;;5032235;28;20037;-70
2021/03/22 05:12:12;;;;;;;27.77;18.23;;;2.10;97.20;;;;;;5016908;28;20040;-72
2021/03/22 05:14:37;;;;;;;28.27;19.50;;;2.10;96.90;;;;;;5015925;28;20205;-70
2021/03/22 05:17:04;;;;;;;24.60;17.37;;;2.10;96.70;;;;;;5017175;28;20375;-71
2021/03/22 05:19:31;;;;;;;30.97;19.97;;;2.10;96.90;;;;;;5017055;28;20451;-71
2021/03/22 05:21:58;;;;;;;31.40;20.70;;;2.20;97.10;;;;;;5015480;28;20382;-71
2021/03/22 05:24:25;;;;;;;29.63;17.93;;;2.20;97.40;;;;;;5015483;28;20096;-71
2021/03/22 05:26:52;;;;;;;25.93;16.83;;;2.10;96.40;;;;;;5016131;28;20488;-71
2021/03/22 05:29:20;;;;;;;28.87;17.07;;;2.10;96.70;;;;;;5016679;28;20430;-71
2021/03/22 05:31:46;;;;;;;31.37;18.27;;;2.10;96.60;;;;;;5016688;28;20034;-72
2021/03/22 05:34:12;;;;;;;29.53;18.70;;;2.20;96.30;;;;;;5031729;28;20470;-72
2021/03/22 05:36:38;;;;;;;29.37;18.90;;;2.20;97.00;;;;;;5016877;28;20034;-71
2021/03/22 05:39:05;;;;;;;28.93;17.80;;;2.20;97.00;;;;;;5031623;28;20037;-70
2021/03/22 05:41:43;;;;;;;30.53;18.53;;;2.30;96.00;;;;;;5016701;28;20065;-71
2021/03/22 05:44:36;;;;;;;34.03;19.87;;;2.30;97.00;;;;;;5016415;28;20057;-71
2021/03/22 05:47:25;;;;;;;29.50;18.53;;;2.30;97.50;;;;;;5016228;28;20030;-70
2021/03/22 05:50:22;;;;;;;28.77;18.70;;;2.40;96.80;;;;;;5016013;28;20410;-72
2021/03/22 05:53:21;;;;;;;33.60;19.67;;;2.30;96.30;;;;;;5013974;28;20034;-72
2021/03/22 05:55:55;;;;;;;38.80;20.67;;;2.40;96.80;;;;;;4998107;28;20026;-72
2021/03/22 05:58:24;;;;;;;35.77;20.77;;;2.40;96.50;;;;;;5011694;28;20031;-71
2021/03/22 06:01:06;;;;;;;36.47;20.47;;;2.40;96.70;;;;;;4996446;28;20034;-71
2021/03/22 06:03:39;;;;;;;38.92;23.45;;;2.50;96.60;;;;;;4995240;28;20526;-70
2021/03/22 06:06:10;;;;;;;36.37;22.10;;;2.40;96.40;;;;;;4996375;28;20081;-71
2021/03/22 06:08:42;;;;;;;;;;;2.50;95.50;;;;;;4996700;28;20073;-71
2021/03/22 06:11:32;;;;;;;32.10;19.63;;;2.50;95.60;;;;;;4996376;28;19913;-71
2021/03/22 06:14:39;;;;;;;32.93;19.67;;;2.50;94.90;;;;;;4995241;28;20121;-72
2021/03/22 06:17:27;;;;;;;35.07;21.10;;;2.60;95.60;;;;;;4986818;28;20046;-73
2021/03/22 06:19:59;;;;;;;30.67;19.10;;;2.60;94.80;;;;;;5011225;28;20049;-73
2021/03/22 06:22:28;;;;;;;;;;;2.60;93.50;;;;;;4996528;28;20028;-70
2021/03/22 06:25:37;;;;;;;30.20;18.73;;;2.70;94.50;;;;;;4995954;28;20358;-75
2021/03/22 06:28:30;;;;;;;35.53;22.07;;;2.90;94.70;;;;;;4992248;28;20191;-74
2021/03/22 06:31:08;;;;;;;31.47;19.17;;;3.00;94.70;;;;;;4991299;28;20122;-73
2021/03/22 06:33:34;;;;;;;28.50;19.10;;;3.00;93.70;;;;;;4995874;28;20019;-74
2021/03/22 06:36:00;;;;;;;27.10;17.63;;;3.00;92.80;;;;;;5002885;28;20022;-73
2021/03/22 06:38:26;;;;;;;28.67;18.27;;;3.00;92.30;;;;;;4998394;28;20137;-73
2021/03/22 06:40:52;;;;;;;30.87;19.70;;;3.10;93.40;;;;;;4995590;28;20030;-75
2021/03/22 06:43:25;;;;;;;32.67;21.00;;;3.10;93.00;;;;;;5010465;28;20034;-74
2021/03/22 06:46:05;;;;;;;31.93;19.87;;;3.20;94.10;;;;;;4995497;28;20024;-73
2021/03/22 06:51:39;;;;;;;32.63;20.23;;;3.20;93.20;;;;;;4994592;28;20044;-72
2021/03/22 06:54:28;;;;;;;34.70;20.87;;;3.10;93.00;;;;;;4995098;28;20022;-74
2021/03/22 06:57:12;;;;;;;32.87;20.17;;;3.00;94.30;;;;;;5010415;28;20433;-72
2021/03/22 06:59:48;;;;;;;41.23;24.77;;;2.80;93.10;;;;;;4995389;28;20054;-73
2021/03/22 07:02:23;;;;;;;42.33;26.73;;;2.80;94.80;;;;;;5010362;28;20027;-74
2021/03/22 07:04:49;;;;;;;33.07;21.57;;;2.70;94.60;;;;;;4993949;28;20073;-73
2021/03/22 07:07:24;;;;;;;42.47;24.10;;;2.70;95.00;;;;;;4993439;28;20490;-73
2021/03/22 07:09:56;;;;;;;45.70;25.60;;;2.60;96.30;;;;;;5010110;28;20026;-72
2021/03/22 07:12:35;;;;;;;38.50;23.20;;;2.60;96.60;;;;;;5010158;28;20037;-73
2021/03/22 07:15:24;;;;;;;48.30;26.80;;;2.60;96.50;;;;;;4995143;28;20081;-72
2021/03/22 07:18:16;;;;;;;46.03;27.93;;;2.50;97.80;;;;;;4988152;28;20559;-72
2021/03/22 07:21:14;;;;;;;50.73;29.10;;;2.60;97.80;;;;;;5010034;28;20022;-72
2021/03/22 07:23:43;;;;;;;55.23;31.90;;;2.50;97.80;;;;;;5009933;28;20030;-72
2021/03/22 07:26:22;;;;;;;46.27;27.60;;;2.60;98.50;;;;;;4993257;28;20042;-73
2021/03/22 07:29:09;;;;;;;47.57;27.20;;;2.60;98.60;;;;;;4993425;28;20050;-71
2021/03/22 07:31:53;;;;;;;43.73;26.23;;;2.40;98.60;;;;;;4994842;28;20034;-71
2021/03/22 07:34:45;;;;;;;52.53;29.57;;;2.40;99.20;;;;;;4994735;28;20034;-72
2021/03/22 07:37:25;;;;;;;55.75;33.67;;;2.30;99.90;;;;;;5009803;28;20042;-72
2021/03/22 07:40:18;;;;;;;45.60;28.30;;;2.40;99.90;;;;;;4993356;28;20550;-71
2021/03/22 07:43:14;;;;;;;53.73;31.70;;;2.50;99.90;;;;;;5009674;28;20022;-73
2021/03/22 07:46:14;;;;;;;54.10;32.17;;;2.50;99.90;;;;;;5009313;28;20050;-72
2021/03/22 07:49:16;;;;;;;58.60;34.40;;;2.50;99.90;;;;;;5009406;28;20066;-72
2021/03/22 07:52:02;;;;;;;64.13;37.17;;;2.50;99.90;;;;;;4994401;28;20084;-72
2021/03/22 07:54:36;;;;;;;58.70;34.47;;;2.50;99.90;;;;;;4994411;28;20030;-73
2021/03/22 07:57:16;;;;;;;53.53;32.53;;;2.50;99.90;;;;;;4993944;28;20570;-72
2021/03/22 07:59:56;;;;;;;52.50;32.80;;;2.60;99.90;;;;;;4994225;28;20076;-72
2021/03/22 08:02:56;;;;;;;59.07;35.30;;;2.70;99.90;;;;;;4994181;28;20030;-71
2021/03/22 08:05:40;;;;;;;63.13;36.23;;;2.60;99.90;;;;;;4980626;28;20394;-70
2021/03/22 08:08:30;;;;;;;57.57;33.93;;;2.60;99.90;;;;;;4992738;28;20030;-73
2021/03/22 08:11:20;;;;;;;61.97;35.27;;;2.60;99.90;;;;;;5009004;28;20027;-74
2021/03/22 08:13:57;;;;;;;70.47;40.20;;;2.60;99.90;;;;;;5009219;28;20085;-72
2021/03/22 08:16:54;;;;;;;66.50;39.77;;;2.80;99.90;;;;;;4993681;28;20410;-72
2021/03/22 08:19:37;;;;;;;57.17;34.00;;;2.80;99.90;;;;;;5020563;28;20088;-72
2021/03/22 08:22:32;;;;;;;57.57;34.60;;;2.80;99.90;;;;;;5011964;28;20026;-69
2021/03/22 08:25:29;;;;;;;76.00;42.43;;;2.70;99.90;;;;;;5012008;28;20040;-73
2021/03/22 08:28:10;;;;;;;59.93;35.27;;;2.80;99.90;;;;;;5011037;28;20038;-70
2021/03/22 08:30:46;;;;;;;66.63;38.90;;;2.90;99.90;;;;;;5010651;28;20060;-72
2021/03/22 08:33:24;;;;;;;61.30;37.40;;;2.80;99.90;;;;;;5013345;28;20029;-73
2021/03/22 08:35:59;;;;;;;74.67;42.50;;;2.80;99.90;;;;;;5012764;28;20026;-74
2021/03/22 08:38:42;;;;;;;61.23;36.83;;;2.70;99.90;;;;;;5012691;28;20494;-75
2021/03/22 08:41:29;;;;;;;55.87;33.33;;;2.70;99.90;;;;;;5008450;28;20080;-74
2021/03/22 08:44:07;;;;;;;62.63;36.30;;;2.60;99.90;;;;;;4992282;28;20022;-70
2021/03/22 08:46:42;;;;;;;64.40;37.70;;;2.70;99.90;;;;;;4992144;28;20027;-71
2021/03/22 08:49:51;;;;;;;63.95;37.60;;;2.60;99.90;;;;;;4992222;28;20061;-73
2021/03/22 08:52:28;;;;;;;57.57;34.70;;;2.80;99.90;;;;;;4987842;28;20093;-74
2021/03/22 08:55:21;;;;;;;64.63;38.03;;;2.80;99.90;;;;;;4993588;28;20023;-74
2021/03/22 08:58:27;;;;;;;58.83;35.63;;;2.90;99.90;;;;;;5005715;28;20149;-73
2021/03/22 09:00:55;;;;;;;62.70;38.77;;;2.90;99.90;;;;;;4996879;28;20026;-75
2021/03/22 09:03:33;;;;;;;78.60;44.60;;;2.90;99.90;;;;;;5011712;28;20030;-72
2021/03/22 09:06:37;;;;;;;64.73;36.33;;;3.00;99.90;;;;;;5006480;28;20033;-70
2021/03/22 09:09:16;;;;;;;51.57;33.13;;;3.00;99.90;;;;;;4936206;29;20082;-67
2021/03/22 09:11:46;;;;;;;55.40;33.97;;;2.90;99.90;;;;;;4949771;29;20028;-74
2021/03/22 09:14:14;;;;;;;56.27;34.23;;;2.90;99.90;;;;;;4951123;29;20435;-71
2021/03/22 09:16:52;;;;;;;57.37;35.60;;;2.80;99.90;;;;;;4935902;29;20027;-74
2021/03/22 09:19:20;;;;;;;61.37;36.67;;;2.80;99.90;;;;;;4935929;29;20035;-75
2021/03/22 09:21:53;;;;;;;59.07;36.83;;;2.80;99.90;;;;;;4952099;29;20035;-73
2021/03/22 09:24:43;;;;;;;57.57;34.40;;;2.80;99.90;;;;;;4955786;28;20053;-72
2021/03/22 09:27:22;;;;;;;60.13;35.60;;;2.80;99.90;;;;;;5051955;28;20564;-73
2021/03/22 09:30:01;;;;;;;54.20;34.13;;;2.80;99.90;;;;;;5051643;28;20465;-75
2021/03/22 09:32:56;;;;;;;63.97;35.63;;;2.80;99.90;;;;;;5050120;28;20444;-73
2021/03/22 09:36:09;;;;;;;75.97;41.93;;;3.00;99.90;;;;;;5044758;28;20071;-72
2021/03/22 09:38:42;;;;;;;63.53;38.07;;;3.00;99.90;;;;;;5050683;28;20039;-74
2021/03/22 09:41:08;;;;;;;57.17;35.10;;;3.10;99.90;;;;;;5050995;28;20473;-70
2021/03/22 09:43:36;;;;;;;61.43;36.40;;;3.00;99.90;;;;;;5051887;28;20483;-74
2021/03/22 09:46:23;;;;;;;52.80;33.90;;;3.00;99.90;;;;;;5050766;28;20032;-77
2021/03/22 09:49:21;;;;;;;58.70;36.20;;;2.90;99.90;;;;;;5055319;28;20029;-76
2021/03/22 09:51:50;;;;;;;63.57;38.70;;;3.00;99.90;;;;;;5054631;28;20028;-77
2021/03/22 09:54:41;;;;;;;72.03;41.50;;;3.10;99.90;;;;;;5054501;28;20033;-74
2021/03/22 09:57:25;;;;;;;58.47;37.30;;;3.10;99.90;;;;;;5039755;28;20034;-74
2021/03/22 10:00:19;;;;;;;58.00;34.27;;;3.00;99.90;;;;;;5034488;28;20032;-72
2021/03/22 10:02:51;;;;;;;62.40;37.77;;;3.10;99.90;;;;;;5034602;28;20033;-73
2021/03/22 10:05:20;;;;;;;62.23;37.60;;;3.10;99.90;;;;;;5035745;28;20036;-73
2021/03/22 10:08:13;;;;;;;53.37;34.20;;;3.10;99.90;;;;;;5035481;28;20064;-75
2021/03/22 10:10:55;;;;;;;62.10;36.53;;;3.20;99.90;;;;;;5035622;28;20457;-74
2021/03/22 10:13:49;;;;;;;48.90;30.35;;;3.30;99.90;;;;;;5053008;28;20021;-73
2021/03/22 10:16:17;;;;;;;47.73;29.77;;;3.30;99.90;;;;;;5053408;28;20037;-75
2021/03/22 10:18:53;;;;;;;55.87;34.10;;;3.30;99.90;;;;;;5054000;28;20064;-75
2021/03/22 10:21:28;;;;;;;67.33;36.40;;;3.30;99.90;;;;;;5048146;28;20025;-76
2021/03/22 10:24:14;;;;;;;58.60;33.73;;;3.40;99.90;;;;;;5049636;28;20049;-75
2021/03/22 10:26:44;;;;;;;59.47;34.63;;;3.40;99.90;;;;;;5033376;28;20493;-71
2021/03/22 10:29:25;;;;;;;61.53;35.43;;;3.30;99.90;;;;;;5034073;28;20103;-74
2021/03/22 10:32:01;;;;;;;53.93;33.93;;;3.40;99.90;;;;;;5052243;28;20045;-74
2021/03/22 10:34:40;;;;;;;58.97;34.17;;;3.40;99.90;;;;;;5053921;28;20270;-73
2021/03/22 10:37:15;;;;;;;51.33;31.93;;;3.50;99.90;;;;;;5053788;28;20373;-72
2021/03/22 10:39:48;;;;;;;70.00;40.25;;;3.60;99.90;;;;;;5053799;28;20032;-75
2021/03/22 10:42:26;;;;;;;58.97;34.23;;;3.60;99.90;;;;;;5055031;28;20025;-74
2021/03/22 10:44:53;;;;;;;57.37;33.87;;;3.60;99.90;;;;;;5053692;28;20099;-74
2021/03/22 10:47:21;;;;;;;58.33;35.65;;;3.60;99.90;;;;;;5053382;28;20386;-72
2021/03/22 10:49:50;;;;;;;66.93;40.67;;;3.70;99.90;;;;;;5053478;28;20082;-75
2021/03/22 10:52:34;;;;;;;52.17;32.80;;;3.70;99.90;;;;;;5054826;28;20111;-71
2021/03/22 10:54:59;;;;;;;67.78;41.17;;;3.70;99.90;;;;;;5054569;28;20083;-72
2021/03/22 10:57:41;;;;;;;70.20;41.63;;;3.70;99.90;;;;;;5054780;28;20033;-71
2021/03/22 11:00:55;;;;;;;52.78;32.70;;;3.70;99.90;;;;;;5048236;28;20109;-74
2021/03/22 11:03:24;;;;;;;49.97;32.60;;;3.60;99.90;;;;;;5053279;28;20440;-72
2021/03/22 11:05:54;;;;;;;63.03;35.07;;;3.60;99.90;;;;;;5049265;28;20025;-73
2021/03/22 11:08:32;;;;;;;59.13;35.87;;;3.60;99.90;;;;;;5033552;28;20420;-72
2021/03/22 11:11:11;;;;;;;62.17;35.92;;;3.50;99.90;;;;;;5033190;28;20128;-72
2021/03/22 11:13:40;;;;;;;72.47;40.45;;;3.50;99.90;;;;;;5033531;28;20029;-72
2021/03/22 11:16:07;;;;;;;60.10;38.20;;;3.70;99.90;;;;;;5033116;28;20052;-74
2021/03/22 11:18:34;;;;;;;57.17;33.63;;;3.70;99.90;;;;;;5034036;28;20108;-76
2021/03/22 11:21:01;;;;;;;66.15;41.30;;;3.70;99.90;;;;;;5044245;28;20028;-71
2021/03/22 11:23:44;;;;;;;45.03;29.27;;;3.70;99.90;;;;;;5049802;28;20071;-74
2021/03/22 11:26:23;;;;;;;59.75;35.25;;;3.60;99.90;;;;;;5053419;28;20147;-74
2021/03/22 11:28:49;;;;;;;44.88;28.67;;;3.60;99.90;;;;;;5052739;28;20032;-72
2021/03/22 11:31:29;;;;;;;48.38;30.60;;;3.60;99.90;;;;;;5052452;28;20029;-72
2021/03/22 11:34:16;;;;;;;50.57;31.80;;;3.50;99.90;;;;;;5053563;28;20017;-76
2021/03/22 11:36:44;;;;;;;53.67;30.88;;;3.50;99.90;;;;;;5053992;28;20090;-73
2021/03/22 11:39:23;;;;;;;51.92;32.10;;;3.60;99.90;;;;;;5052182;28;20073;-73
2021/03/22 11:41:52;;;;;;;52.08;33.75;;;3.60;99.90;;;;;;5033413;28;20040;-74
2021/03/22 11:44:33;;;;;;;61.42;35.78;;;3.70;99.90;;;;;;5033797;28;20022;-71
2021/03/22 11:47:36;;;;;;;51.42;31.85;;;3.70;99.90;;;;;;5035586;28;20203;-71
2021/03/22 11:50:21;;;;;;;59.35;37.75;;;3.80;99.90;;;;;;5050761;28;20039;-72
2021/03/22 11:52:59;;;;;;;53.53;34.13;;;3.80;99.90;;;;;;5052377;28;20021;-71
2021/03/22 11:56:14;;;;;;;52.40;33.63;;;3.80;99.90;;;;;;5052308;28;20112;-69
2021/03/22 11:58:43;;;;;;;56.42;33.53;;;3.80;99.90;;;;;;5046749;28;20523;-72
2021/03/22 12:01:25;;;;;;;76.45;38.75;;;3.90;99.90;;;;;;5052334;28;20029;-70
2021/03/22 12:04:21;;;;;;;51.75;31.50;;;3.90;99.90;;;;;;5051440;28;20021;-75
2021/03/22 12:07:22;;;;;;;47.05;30.35;;;3.90;99.90;;;;;;5050048;28;20535;-75
2021/03/22 12:13:19;;;;;;;43.03;27.92;;;3.80;99.90;;;;;;5163995;23;20057;-69
2021/03/22 12:15:44;;;;;;;52.17;30.40;;;3.70;99.90;;;;;;5055333;28;20020;-73
2021/03/22 12:18:26;;;;;;;58.58;34.55;;;3.70;99.90;;;;;;5071983;28;20482;-72
2021/03/22 12:20:52;;;;;;;56.58;34.03;;;3.80;99.90;;;;;;5072009;28;20409;-76
2021/03/22 12:23:17;;;;;;;54.90;33.92;;;3.80;99.90;;;;;;5072932;28;20150;-73
2021/03/22 12:25:43;;;;;;;55.72;33.92;;;3.80;99.90;;;;;;5073465;28;20372;-74
2021/03/22 12:28:09;;;;;;;51.23;32.67;;;3.80;99.90;;;;;;5073157;28;20125;-75
2021/03/22 12:30:35;;;;;;;56.83;33.90;;;3.80;99.90;;;;;;5055159;28;20040;-72
2021/03/22 12:33:03;;;;;;;70.43;38.97;;;3.90;99.90;;;;;;5071750;28;20025;-74
2021/03/22 12:35:38;;;;;;;70.78;37.30;;;4.00;99.90;;;;;;5073029;28;20028;-75
2021/03/22 12:38:06;;;;;;;83.15;48.92;;;4.20;99.90;;;;;;5073096;28;20104;-75
2021/03/22 12:40:32;;;;;;;65.95;41.13;;;4.30;99.90;;;;;;5071697;28;20028;-74
2021/03/22 12:43:00;;;;;;;55.65;36.42;;;4.30;99.90;;;;;;5071706;28;20021;-74
2021/03/22 12:45:34;;;;;;;50.17;33.55;;;4.20;99.90;;;;;;5072914;28;20025;-75
2021/03/22 12:48:00;;;;;;;53.35;31.80;;;4.30;99.90;;;;;;5071535;28;20028;-74
2021/03/22 12:50:37;;;;;;;48.58;33.53;;;4.20;99.90;;;;;;5072868;28;20488;-74
2021/03/22 12:53:04;;;;;;;40.55;27.77;;;4.20;99.90;;;;;;5071425;28;20028;-72
2021/03/22 12:55:31;;;;;;;37.50;26.40;;;4.50;99.90;;;;;;5071439;28;20075;-72
2021/03/22 12:58:01;;;;;;;37.75;26.20;;;4.70;99.90;;;;;;5071591;28;20091;-72
2021/03/22 13:00:28;;;;;;;37.13;25.27;;;4.70;99.90;;;;;;5072795;28;20077;-71
2021/03/22 13:02:54;;;;;;;38.25;26.40;;;4.90;99.90;;;;;;5068782;28;20021;-71
2021/03/22 13:05:26;;;;;;;37.80;26.58;;;5.20;99.90;;;;;;5051714;28;20032;-72
2021/03/22 13:07:53;;;;;;;35.15;26.05;;;5.40;99.90;;;;;;5071547;28;20029;-74
2021/03/22 13:10:28;;;;;;;39.78;26.60;;;5.50;99.90;;;;;;5072854;28;20495;-74
2021/03/22 13:12:55;;;;;;;38.00;26.35;;;5.60;99.90;;;;;;5072632;28;20041;-72
2021/03/22 13:15:38;;;;;;;37.20;26.40;;;5.60;99.90;;;;;;5053921;28;20085;-75
2021/03/22 13:18:13;;;;;;;45.22;30.17;;;5.60;99.50;;;;;;5054449;28;20052;-73
2021/03/22 13:20:40;;;;;;;43.58;30.92;;;5.70;99.80;;;;;;5054242;28;20093;-70
2021/03/22 13:23:07;;;;;;;61.33;38.95;;;5.60;99.00;;;;;;5056439;28;20025;-71